Time;durP1;ratioP1;P1;durP2;ratioP2;P2;SDS_P1;SDS_P2;PMS_P1;PMS_P2;Temp;Humidity;BMP_temperature;BMP_pressure;BME280_temperature;BME280_humidity;BME280_pressure;Samples;Min_cycle;Max_cycle;Signal;HPM_P1;HPM_P2
2022/05/16 00:01:46;;;;;;;9.27;3.22;;;;;;;-148.88;65.97;75683.78;5016465;28;20446;-82
2022/05/16 00:04:12;;;;;;;9.73;3.35;;;;;;;-148.88;65.93;75683.78;5016132;28;20032;-83
2022/05/16 00:06:37;;;;;;;11.95;3.65;;;;;;;-148.88;66.43;75695.97;5016488;28;20048;-83
2022/05/16 00:09:03;;;;;;;7.78;3.00;;;;;;;-148.88;66.50;75689.88;5017583;28;20060;-84
2022/05/16 00:11:28;;;;;;;7.88;3.47;;;;;;;-148.88;66.49;75691.91;5036665;28;20072;-84
2022/05/16 00:13:53;;;;;;;10.43;3.17;;;;;;;-148.88;67.04;75695.97;5037013;28;20112;-83
2022/05/16 00:16:19;;;;;;;8.07;2.92;;;;;;;-148.88;66.84;75698.00;5040936;28;20029;-80
2022/05/16 00:18:45;;;;;;;11.30;3.50;;;;;;;-148.88;66.70;75695.97;5041171;28;20484;-84
2022/05/16 00:21:10;;;;;;;8.48;2.95;;;;;;;-148.88;66.72;75695.97;5022850;28;20032;-84
2022/05/16 00:23:35;;;;;;;6.65;3.00;;;;;;;-148.88;67.22;75695.97;5020376;28;20117;-82
2022/05/16 00:26:01;;;;;;;10.75;2.95;;;;;;;-148.88;67.33;75698.00;5019570;28;20065;-83
2022/05/16 00:28:26;;;;;;;7.03;3.20;;;;;;;-148.88;67.21;75695.97;5019429;28;20025;-82
2022/05/16 00:30:51;;;;;;;9.32;3.28;;;;;;;-148.88;67.67;75700.03;5019288;28;20482;-83
2022/05/16 00:33:17;;;;;;;14.32;3.30;;;;;;;-148.88;67.58;75706.13;5019723;28;20022;-83
2022/05/16 00:35:42;;;;;;;11.43;2.88;;;;;;;-148.88;67.60;75712.22;5019407;28;20112;-82
2022/05/16 00:38:07;;;;;;;9.57;3.15;;;;;;;-148.88;68.34;75718.31;5019591;28;20029;-83
2022/05/16 00:40:33;;;;;;;8.85;3.80;;;;;;;-148.88;68.33;75720.34;5037639;28;20028;-82
2022/05/16 00:43:06;;;;;;;8.82;3.70;;;;;;;-148.88;68.62;75720.34;5019597;28;20029;-83
2022/05/16 00:45:33;;;;;;;9.68;3.22;;;;;;;-148.88;68.47;75724.41;5019486;28;20021;-83
2022/05/16 00:47:58;;;;;;;8.25;3.15;;;;;;;-148.88;68.67;75728.47;5021809;28;20021;-83
2022/05/16 00:50:24;;;;;;;9.02;3.33;;;;;;;-148.88;69.29;75732.53;5022154;28;20022;-84
2022/05/16 00:52:50;;;;;;;6.78;3.15;;;;;;;-148.88;69.69;75732.53;5040527;28;20060;-82
2022/05/16 00:55:32;;;;;;;7.53;3.42;;;;;;;-148.88;69.71;75744.72;5022258;28;20048;-83
2022/05/16 00:58:03;;;;;;;8.88;3.20;;;;;;;-148.88;69.78;75740.66;5021743;28;20034;-81
2022/05/16 01:00:35;;;;;;;9.77;3.50;;;;;;;-148.88;69.94;75738.63;5020053;28;20039;-82
2022/05/16 01:05:51;;;;;;;8.98;2.92;;;;;;;-148.88;69.70;75740.66;5036890;28;20114;-82
2022/05/16 01:08:19;;;;;;;9.38;3.50;;;;;;;-148.88;70.00;75740.66;5018965;28;20471;-81
2022/05/16 01:10:45;;;;;;;8.40;3.08;;;;;;;-148.88;71.08;75752.84;5036736;28;20041;-84
2022/05/16 01:13:11;;;;;;;9.95;3.22;;;;;;;-148.88;71.05;75760.97;5036927;28;20048;-83
2022/05/16 01:15:45;;;;;;;11.18;3.17;;;;;;;-148.88;70.98;75760.97;5041363;23;21483;-82
2022/05/16 01:18:16;;;;;;;11.00;3.50;;;;;;;-148.88;71.62;75771.13;5036065;28;20434;-82
2022/05/16 01:21:08;;;;;;;10.70;3.25;;;;;;;-148.88;71.89;75763.00;5037144;28;20072;-82
2022/05/16 01:23:39;;;;;;;7.60;3.15;;;;;;;-148.88;72.11;75771.13;5019359;28;20470;-83
2022/05/16 01:26:10;;;;;;;10.43;3.30;;;;;;;-148.88;72.10;75767.06;5037603;28;20033;-83
2022/05/16 01:28:35;;;;;;;10.88;3.30;;;;;;;-148.88;72.38;75773.16;5037511;28;20025;-83
2022/05/16 01:31:01;;;;;;;9.25;3.42;;;;;;;-148.88;72.47;75765.03;5019363;28;20098;-83
2022/05/16 01:33:26;;;;;;;10.68;3.30;;;;;;;-148.88;72.76;75765.03;5019078;28;20479;-83
2022/05/16 01:35:52;;;;;;;9.05;3.60;;;;;;;-148.88;72.37;75767.06;5019010;28;20037;-83
2022/05/16 01:38:22;;;;;;;11.48;3.80;;;;;;;-148.88;72.50;75773.16;5036579;28;20051;-83
2022/05/16 01:40:52;;;;;;;10.00;3.10;;;;;;;-148.88;72.51;75769.09;5018270;28;20116;-82
2022/05/16 01:43:20;;;;;;;10.10;3.70;;;;;;;-148.88;73.04;75789.41;5035894;28;20021;-82
2022/05/16 01:45:46;;;;;;;11.23;3.40;;;;;;;-148.88;73.60;75791.44;5048976;28;20032;-83
2022/05/16 01:48:14;;;;;;;8.23;3.85;;;;;;;-148.88;73.50;75789.41;5050390;28;20030;-83
2022/05/16 01:50:41;;;;;;;8.15;3.20;;;;;;;-148.88;73.10;75785.34;5047854;28;20026;-83
2022/05/16 01:53:07;;;;;;;9.98;3.90;;;;;;;-148.88;74.04;75793.47;5045221;28;20084;-84
2022/05/16 01:55:32;;;;;;;11.10;3.90;;;;;;;-148.88;74.25;75791.44;5045212;28;20060;-84
2022/05/16 01:57:58;;;;;;;10.98;3.40;;;;;;;-148.88;74.21;75787.38;5027864;28;20025;-84
2022/05/16 02:00:24;;;;;;;11.35;3.42;;;;;;;-148.88;73.90;75789.41;5044148;28;20024;-85
2022/05/16 02:02:49;;;;;;;8.18;3.00;;;;;;;-148.88;73.74;75787.38;5036727;28;20541;-81
2022/05/16 02:05:21;;;;;;;13.93;3.58;;;;;;;-148.88;74.34;75797.53;5035529;28;20029;-83
2022/05/16 02:07:46;;;;;;;7.75;3.10;;;;;;;-148.88;74.12;75797.53;5035909;28;20026;-82
2022/05/16 02:10:18;;;;;;;12.23;3.70;;;;;;;-148.88;74.73;75793.47;5035518;28;20029;-83
2022/05/16 02:12:44;;;;;;;11.57;3.70;;;;;;;-148.88;74.19;75797.53;5018404;28;20022;-83
2022/05/16 02:15:12;;;;;;;12.23;3.80;;;;;;;-148.88;74.18;75799.56;5018218;28;20032;-84
2022/05/16 02:17:38;;;;;;;7.15;3.33;;;;;;;-148.88;74.19;75797.53;5035475;28;20536;-83
2022/05/16 02:20:04;;;;;;;8.45;3.53;;;;;;;-148.88;74.76;75799.56;5016399;28;20033;-83
2022/05/16 02:25:13;;;;;;;10.20;4.05;;;;;;;-148.88;74.31;75789.41;5034571;28;20029;-84
2022/05/16 02:27:39;;;;;;;10.85;3.53;;;;;;;-148.88;74.21;75797.53;5036303;28;20038;-83
2022/05/16 02:30:05;;;;;;;11.25;3.63;;;;;;;-148.88;74.07;75799.56;5016447;28;20066;-83
2022/05/16 02:32:31;;;;;;;9.30;3.85;;;;;;;-148.88;74.22;75793.47;5034168;28;20464;-82
2022/05/16 02:34:56;;;;;;;8.32;3.40;;;;;;;-148.88;74.38;75797.53;5034498;28;20064;-82
2022/05/16 02:37:22;;;;;;;9.82;3.72;;;;;;;-148.88;74.81;75813.78;5033969;28;20033;-83
2022/05/16 02:39:48;;;;;;;8.63;3.47;;;;;;;-148.88;74.73;75815.81;5034457;28;20026;-82
2022/05/16 02:42:14;;;;;;;11.85;3.85;;;;;;;-148.88;75.26;75813.78;5034361;28;20025;-82
2022/05/16 02:44:43;;;;;;;10.38;3.42;;;;;;;-148.88;75.11;75821.91;5034564;28;20029;-82
2022/05/16 02:47:16;;;;;;;8.30;3.20;;;;;;;-148.88;75.43;75817.84;5034366;28;20026;-82
2022/05/16 02:49:42;;;;;;;11.05;3.45;;;;;;;-148.88;75.78;75817.84;5016527;28;20096;-82
2022/05/16 02:52:08;;;;;;;11.30;3.28;;;;;;;-148.88;75.77;75809.72;5034759;28;20120;-81
2022/05/16 02:54:34;;;;;;;11.10;3.50;;;;;;;-148.88;75.90;75821.91;5034869;28;20188;-84
2022/05/16 02:57:00;;;;;;;10.35;3.63;;;;;;;-148.88;76.35;75821.91;5033355;28;20017;-83
2022/05/16 02:59:27;;;;;;;6.45;3.22;;;;;;;-148.88;76.49;75828.00;5016262;28;20029;-84
2022/05/16 03:01:53;;;;;;;11.75;3.75;;;;;;;-148.88;76.18;75821.91;5033669;28;20112;-84
2022/05/16 03:04:19;;;;;;;9.15;4.03;;;;;;;-148.88;76.19;75825.97;5033592;28;20096;-82
2022/05/16 03:06:45;;;;;;;9.77;3.70;;;;;;;-148.88;76.44;75825.97;5033647;28;20452;-83
2022/05/16 03:09:11;;;;;;;8.13;3.28;;;;;;;-148.88;76.64;75823.94;5033695;28;20163;-83
2022/05/16 03:11:37;;;;;;;8.80;3.60;;;;;;;-148.88;76.82;75817.84;5033724;28;20030;-84
2022/05/16 03:14:03;;;;;;;9.50;4.13;;;;;;;-148.88;77.11;75813.78;5033683;28;20032;-84
2022/05/16 03:16:28;;;;;;;10.48;3.47;;;;;;;-148.88;76.47;75817.84;5033561;28;20036;-83
2022/05/16 03:18:54;;;;;;;11.65;3.67;;;;;;;-148.88;76.82;75815.81;5015789;28;20030;-82
2022/05/16 03:21:20;;;;;;;10.70;3.33;;;;;;;-148.88;76.72;75815.81;5033507;28;20435;-83
2022/05/16 03:23:45;;;;;;;11.55;3.75;;;;;;;-148.88;76.84;75813.78;5034099;28;20033;-82
2022/05/16 03:26:10;;;;;;;6.78;3.53;;;;;;;-148.88;76.39;75813.78;5017080;28;20021;-83
2022/05/16 03:28:36;;;;;;;8.23;3.17;;;;;;;-148.88;77.11;75817.84;5016312;28;20018;-83
2022/05/16 03:31:01;;;;;;;6.93;3.13;;;;;;;-148.88;76.82;75821.91;5015893;28;20024;-83
2022/05/16 03:33:27;;;;;;;11.73;3.28;;;;;;;-148.88;77.47;75836.13;5015409;28;20501;-82
2022/05/16 03:35:55;;;;;;;7.90;3.55;;;;;;;-148.88;77.36;75840.19;5015766;28;20044;-83
2022/05/16 03:41:10;;;;;;;8.85;2.92;;;;;;;-148.88;77.21;75836.13;5033693;28;20029;-83
2022/05/16 03:43:38;;;;;;;9.95;3.13;;;;;;;-148.88;77.76;75828.00;5037062;28;20022;-83
2022/05/16 03:46:04;;;;;;;8.32;3.25;;;;;;;-148.88;77.71;75838.16;5036816;28;20025;-83
2022/05/16 03:48:31;;;;;;;10.35;4.05;;;;;;;-148.88;78.16;75828.00;5041519;28;20029;-83
2022/05/16 03:50:56;;;;;;;11.35;3.72;;;;;;;-148.88;77.95;75821.91;5037935;28;20470;-82
2022/05/16 03:53:22;;;;;;;12.05;4.15;;;;;;;-148.88;77.61;75821.91;5034630;28;20091;-81
2022/05/16 03:55:47;;;;;;;9.52;3.70;;;;;;;-148.88;77.29;75815.81;5034175;28;20394;-82
2022/05/16 03:58:13;;;;;;;9.75;3.75;;;;;;;-148.88;76.94;75813.78;5016524;28;20108;-82
2022/05/16 04:00:38;;;;;;;10.30;3.95;;;;;;;-148.88;76.66;75813.78;5034300;28;20021;-81
2022/05/16 04:03:03;;;;;;;9.45;3.65;;;;;;;-148.88;76.68;75817.84;5034573;28;20037;-82
2022/05/16 04:05:29;;;;;;;7.85;3.53;;;;;;;-148.88;76.77;75817.84;5034955;28;20033;-83
2022/05/16 04:07:55;;;;;;;7.93;3.47;;;;;;;-148.88;76.90;75817.84;5016827;28;20029;-82
2022/05/16 04:10:20;;;;;;;12.68;3.45;;;;;;;-148.88;77.27;75817.84;5033498;28;20105;-83
2022/05/16 04:12:46;;;;;;;7.47;2.95;;;;;;;-148.88;77.21;75821.91;5032869;28;20113;-82
2022/05/16 04:15:13;;;;;;;9.95;3.33;;;;;;;-148.88;77.48;75817.84;5032980;28;20108;-83
2022/05/16 04:17:39;;;;;;;10.48;3.63;;;;;;;-148.88;77.02;75809.72;5015244;28;20029;-82
2022/05/16 04:20:06;;;;;;;10.93;3.97;;;;;;;-148.88;76.99;75805.66;5015329;28;20028;-81
2022/05/16 04:22:31;;;;;;;8.25;3.55;;;;;;;-148.88;77.53;75801.59;5034125;28;20121;-81
2022/05/16 04:24:57;;;;;;;8.80;3.58;;;;;;;-148.88;77.35;75801.59;5015724;28;20120;-81
2022/05/16 04:27:22;;;;;;;10.10;4.07;;;;;;;-148.88;77.46;75801.59;5015734;28;20032;-81
2022/05/16 04:29:48;;;;;;;10.95;3.63;;;;;;;-148.88;77.29;75797.53;5015934;28;20080;-81
2022/05/16 04:32:13;;;;;;;12.48;3.50;;;;;;;-148.88;77.18;75791.44;5033413;28;20043;-83
2022/05/16 04:34:38;;;;;;;8.45;3.30;;;;;;;-148.88;76.96;75785.34;5033184;28;20443;-84
2022/05/16 04:37:04;;;;;;;7.38;3.70;;;;;;;-148.88;77.17;75779.25;5033471;28;20036;-83
2022/05/16 04:39:29;;;;;;;14.57;4.43;;;;;;;-148.88;77.19;75769.09;5033572;28;20021;-83
2022/05/16 04:44:38;;;;;;;9.88;3.85;;;;;;;-148.88;77.07;75765.03;5033603;28;20455;-83
2022/05/16 04:47:05;;;;;;;9.23;3.40;;;;;;;-148.88;76.94;75763.00;5033740;28;20067;-82
2022/05/16 04:49:31;;;;;;;9.00;3.80;;;;;;;-148.88;77.39;75765.03;5032664;28;20103;-83
2022/05/16 04:51:56;;;;;;;11.60;3.72;;;;;;;-148.88;77.87;75750.81;5014761;28;20116;-84
2022/05/16 04:54:21;;;;;;;12.50;3.92;;;;;;;-148.88;77.83;75752.84;5032190;28;20033;-83
2022/05/16 04:56:47;;;;;;;8.75;3.65;;;;;;;-148.88;77.05;75752.84;5014438;28;20033;-84
2022/05/16 04:59:13;;;;;;;7.80;3.83;;;;;;;-148.88;76.42;75740.66;5014409;28;20574;-84
2022/05/16 05:01:39;;;;;;;10.13;3.60;;;;;;;-148.88;76.93;75734.56;5035206;28;20053;-84
2022/05/16 05:04:05;;;;;;;12.30;4.13;;;;;;;-148.88;76.69;75732.53;5036722;28;20482;-84
2022/05/16 05:06:30;;;;;;;9.30;3.65;;;;;;;-148.88;76.49;75724.41;5018103;28;20072;-84
2022/05/16 05:08:56;;;;;;;8.07;3.47;;;;;;;-148.88;75.84;75712.22;5037694;28;20067;-82
2022/05/16 05:16:48;;;;;;;;;;;;;;;-148.88;76.38;75687.84;5048984;28;20560;-84
2022/05/16 05:19:14;;;;;;;10.87;3.67;;;;;;;-148.88;75.63;75683.78;5036747;28;19913;-84
2022/05/16 05:21:39;;;;;;;10.73;3.88;;;;;;;-148.88;75.55;75671.59;5036089;28;20032;-84
2022/05/16 05:24:05;;;;;;;7.57;3.92;;;;;;;-148.88;75.75;75655.34;5039554;28;20011;-84
2022/05/16 05:26:30;;;;;;;10.18;3.67;;;;;;;-148.88;75.65;75651.28;5035912;28;20029;-84
2022/05/16 05:28:56;;;;;;;9.07;3.25;;;;;;;-148.88;74.21;75626.91;5036886;28;20029;-83
2022/05/16 05:31:25;;;;;;;11.68;3.80;;;;;;;-148.88;74.56;75624.88;5036306;28;20018;-84
2022/05/16 05:33:50;;;;;;;9.40;3.72;;;;;;;-148.88;74.71;75606.59;5018479;28;20478;-83
2022/05/16 05:36:16;;;;;;;7.65;3.40;;;;;;;-148.88;74.07;75606.59;5035658;28;20083;-84
2022/05/16 05:38:41;;;;;;;8.10;3.47;;;;;;;-148.88;74.36;75586.31;5035694;28;20025;-84
2022/05/16 05:41:08;;;;;;;12.52;3.40;;;;;;;-148.88;73.73;75582.22;5035809;28;20025;-84
2022/05/16 05:43:33;;;;;;;10.60;3.63;;;;;;;-148.88;74.07;75570.03;5035938;28;20064;-84
2022/05/16 05:46:02;;;;;;;8.82;3.72;;;;;;;-148.88;73.65;75566.00;5018036;28;20112;-84
2022/05/16 05:48:28;;;;;;;9.95;3.75;;;;;;;-148.88;72.98;75545.69;5018663;28;20021;-84
2022/05/16 05:50:53;;;;;;;11.32;4.00;;;;;;;-148.88;72.38;75535.53;5035732;28;20048;-84
2022/05/16 05:53:19;;;;;;;9.70;3.33;;;;;;;-148.88;72.54;75521.31;5018578;28;20025;-84
2022/05/16 05:55:47;;;;;;;11.70;3.70;;;;;;;-148.88;72.30;75503.03;5035689;28;20386;-84
2022/05/16 05:58:12;;;;;;;10.88;3.30;;;;;;;-148.88;71.40;75480.69;5035331;28;20025;-84
2022/05/16 06:00:38;;;;;;;11.48;3.03;;;;;;;-148.88;69.58;75460.38;5017785;28;20498;-84
2022/05/16 06:03:03;;;;;;;8.90;3.35;;;;;;;-148.88;70.22;75448.19;5035939;28;20071;-84
2022/05/16 06:05:28;;;;;;;7.32;3.00;;;;;;;-148.88;68.54;75427.88;5035331;28;20391;-83
2022/05/16 06:07:54;;;;;;;9.93;3.17;;;;;;;-148.88;68.35;75415.69;5035556;28;20394;-84
2022/05/16 06:10:19;;;;;;;9.35;3.22;;;;;;;-148.88;67.99;75411.63;5035362;28;20021;-84
2022/05/16 06:12:45;;;;;;;8.10;3.05;;;;;;;-148.88;68.66;75391.31;5016516;28;20056;-84
2022/05/16 06:15:12;;;;;;;5.93;2.70;;;;;;;-148.88;67.19;75375.06;5034943;28;20028;-84
2022/05/16 06:17:38;;;;;;;6.13;2.72;;;;;;;-148.88;67.87;75358.81;5034781;28;20505;-83
2022/05/16 06:20:06;;;;;;;9.43;2.97;;;;;;;-148.88;67.72;75342.56;5034829;28;20105;-84
2022/05/16 06:22:34;;;;;;;14.75;3.03;;;;;;;-148.88;65.99;75332.41;5034882;28;20501;-84
2022/05/16 06:27:48;;;;;;;8.07;3.00;;;;;;;-148.88;66.43;75328.34;5035375;28;20121;-84
2022/05/16 06:30:15;;;;;;;7.20;2.83;;;;;;;-148.88;64.66;75316.16;5035008;28;20025;-84
2022/05/16 06:32:41;;;;;;;8.88;2.78;;;;;;;-148.88;65.73;75314.13;5017512;28;20029;-84
2022/05/16 06:35:07;;;;;;;9.95;3.05;;;;;;;-148.88;64.96;75301.94;5016885;28;20061;-84
2022/05/16 06:37:32;;;;;;;8.13;2.83;;;;;;;-148.88;64.94;75283.66;5034799;28;20526;-84
2022/05/16 06:39:57;;;;;;;9.55;2.88;;;;;;;-148.88;65.51;75273.53;5034781;28;20053;-84
2022/05/16 06:42:23;;;;;;;11.10;3.50;;;;;;;-148.88;64.15;75269.47;5034715;28;20466;-84
2022/05/16 06:44:48;;;;;;;6.72;3.00;;;;;;;-148.88;63.89;75257.28;5034706;28;20022;-84
2022/05/16 06:47:14;;;;;;;9.48;2.95;;;;;;;-148.88;64.49;75236.97;5034562;28;20025;-84
2022/05/16 06:49:39;;;;;;;10.23;2.85;;;;;;;-148.88;63.43;75222.75;5016705;28;20020;-84
2022/05/16 06:52:05;;;;;;;9.93;2.78;;;;;;;-148.88;63.85;75204.47;5034311;28;20039;-84
2022/05/16 06:54:30;;;;;;;7.50;2.70;;;;;;;-148.88;62.71;75180.09;5034525;28;20382;-85
2022/05/16 06:56:55;;;;;;;8.57;2.80;;;;;;;-148.88;61.75;75163.84;5034892;28;20029;-84
2022/05/16 06:59:21;;;;;;;13.93;3.10;;;;;;;-148.88;61.66;75143.53;5016730;28;20115;-84
2022/05/16 07:01:46;;;;;;;10.30;2.63;;;;;;;-148.88;60.72;75135.41;5034431;28;20021;-84
2022/05/16 07:04:11;;;;;;;10.95;2.75;;;;;;;-148.88;59.82;75117.13;5034089;28;20095;-84
2022/05/16 07:06:37;;;;;;;7.07;3.00;;;;;;;-148.88;61.07;75121.19;5033886;28;20029;-84
2022/05/16 07:09:02;;;;;;;8.85;2.70;;;;;;;-148.88;62.15;75123.22;5034273;28;20513;-84
2022/05/16 07:11:27;;;;;;;9.07;3.03;;;;;;;-148.88;63.79;75111.03;5034140;28;20025;-84
2022/05/16 07:13:53;;;;;;;10.70;2.65;;;;;;;-148.88;61.06;75094.81;5034203;28;20025;-85
2022/05/16 07:16:18;;;;;;;9.45;2.42;;;;;;;-148.88;56.68;75068.41;5086363;22;20076;-86
2022/05/16 07:18:43;;;;;;;8.23;2.40;;;;;;;-148.88;56.04;75031.84;5057849;28;20035;-88
2022/05/16 07:21:09;;;;;;;11.90;2.80;;;;;;;-148.88;55.83;75019.66;5041367;28;20020;-86
2022/05/16 07:23:34;;;;;;;7.03;2.38;;;;;;;-148.88;54.50;75005.44;5056249;28;20036;-86
2022/05/16 07:28:43;;;;;;;6.88;2.25;;;;;;;-148.88;54.61;74987.16;5058448;28;20020;-86
2022/05/16 07:31:10;;;;;;;5.82;2.20;;;;;;;-148.88;52.41;74972.94;5057743;28;20021;-86
2022/05/16 07:33:35;;;;;;;8.98;2.92;;;;;;;-148.88;52.64;74958.72;5041944;28;20024;-87
2022/05/16 07:36:02;;;;;;;7.00;2.35;;;;;;;-148.88;51.82;74946.53;5040126;28;20029;-86
2022/05/16 07:38:27;;;;;;;8.05;2.28;;;;;;;-148.88;51.88;74930.31;5038391;28;20393;-86
2022/05/16 07:40:53;;;;;;;6.90;2.88;;;;;;;-148.88;53.95;74928.28;5038411;28;20478;-86
2022/05/16 07:43:19;;;;;;;11.63;3.15;;;;;;;-148.88;52.41;74920.16;5037449;28;20025;-86
2022/05/16 07:45:45;;;;;;;6.55;2.78;;;;;;;-148.88;51.10;74916.09;5062416;28;20039;-86
2022/05/16 07:48:12;;;;;;;7.28;2.70;;;;;;;-148.88;50.61;74893.75;5055036;28;20025;-87
2022/05/16 07:50:38;;;;;;;8.40;2.50;;;;;;;-148.88;51.12;74879.53;5037523;28;20083;-86
2022/05/16 07:53:11;;;;;;;7.60;2.45;;;;;;;-148.88;50.41;74871.41;5055338;28;20028;-84
2022/05/16 07:55:37;;;;;;;7.88;2.30;;;;;;;-148.88;50.23;74859.22;5039162;28;20021;-85
2022/05/16 07:58:02;;;;;;;9.50;2.58;;;;;;;-148.88;50.95;74838.91;5038553;28;20024;-87
2022/05/16 08:00:27;;;;;;;11.35;3.13;;;;;;;-148.88;50.66;74830.78;5055844;28;20108;-86
2022/05/16 08:02:53;;;;;;;7.90;2.63;;;;;;;-148.88;49.62;74814.53;5038844;28;20025;-87
2022/05/16 08:05:19;;;;;;;8.75;2.33;;;;;;;-148.88;51.76;74802.38;5039417;28;20184;-87
2022/05/16 08:10:46;;;;;;;9.93;2.60;;;;;;;-148.88;49.19;74763.78;5014039;28;20030;-87
2022/05/16 08:13:11;;;;;;;7.57;2.70;;;;;;;-148.88;48.50;74747.53;5047601;28;20067;-86
2022/05/16 08:15:39;;;;;;;5.57;2.40;;;;;;;-148.88;48.35;74721.13;5056558;28;20036;-86
2022/05/16 08:18:09;;;;;;;9.00;2.65;;;;;;;-148.88;47.19;74725.19;5038255;28;20035;-86
2022/05/16 08:20:39;;;;;;;7.00;2.40;;;;;;;-148.88;47.42;74708.94;5038499;28;20021;-86
2022/05/16 08:23:05;;;;;;;9.05;2.55;;;;;;;-148.88;46.62;74700.84;5045879;28;20025;-84
2022/05/16 08:25:31;;;;;;;5.95;2.33;;;;;;;-148.88;46.42;74688.66;5058463;28;20032;-84
2022/05/16 08:27:56;;;;;;;8.10;2.40;;;;;;;-148.88;47.30;74666.31;5053750;28;20017;-85
2022/05/16 08:30:23;;;;;;;7.88;2.40;;;;;;;-148.88;47.04;74664.28;5053919;28;20385;-86
2022/05/16 08:32:48;;;;;;;6.22;2.55;;;;;;;-148.88;47.15;74646.00;5035608;28;20021;-85
2022/05/16 08:35:16;;;;;;;8.27;2.53;;;;;;;-148.88;48.01;74621.63;5036741;28;20029;-85
2022/05/16 08:40:47;;;;;;;9.85;2.60;;;;;;;-148.88;46.23;74595.25;5058305;28;20073;-85
2022/05/16 08:43:21;;;;;;;7.38;2.47;;;;;;;-148.88;47.20;74585.09;5061420;28;20060;-85
2022/05/16 08:45:57;;;;;;;8.75;2.55;;;;;;;-148.88;48.07;74562.75;5057095;28;20482;-85
2022/05/16 08:48:36;;;;;;;7.13;2.30;;;;;;;-148.88;46.61;74534.31;5039077;28;20025;-85
2022/05/16 08:51:11;;;;;;;8.40;2.40;;;;;;;-148.88;46.10;74505.88;5057497;28;20051;-85
2022/05/16 08:53:46;;;;;;;7.35;2.50;;;;;;;-148.88;45.43;74495.75;5039243;28;20028;-85
2022/05/16 08:56:17;;;;;;;6.55;2.35;;;;;;;-148.88;44.66;74516.03;5039120;28;20021;-85
2022/05/16 08:58:51;;;;;;;6.47;2.70;;;;;;;-148.88;45.92;74514.00;5056791;28;20378;-85
2022/05/16 09:01:20;;;;;;;;;;;;;;;-148.88;44.82;74505.88;5057288;28;20053;-85
2022/05/16 09:03:53;;;;;;;8.95;2.50;;;;;;;-148.88;45.48;74509.94;5038874;28;20412;-86
2022/05/16 09:06:28;;;;;;;7.90;2.40;;;;;;;-148.88;45.69;74509.94;5057635;28;20025;-84
2022/05/16 09:09:14;;;;;;;6.97;2.65;;;;;;;-148.88;45.64;74509.94;5057064;28;20029;-85
2022/05/16 09:12:10;;;;;;;9.90;2.70;;;;;;;-148.88;45.23;74528.22;5039002;28;20025;-86
2022/05/16 09:15:06;;;;;;;9.02;2.78;;;;;;;-148.88;45.49;74538.38;5039413;28;20029;-85
2022/05/16 09:18:15;;;;;;;6.50;2.72;;;;;;;-148.88;45.70;74516.03;5056337;28;20056;-85
2022/05/16 09:20:54;;;;;;;6.88;2.25;;;;;;;-148.88;45.59;74501.81;5039000;28;20052;-86
2022/05/16 09:23:39;;;;;;;8.18;2.35;;;;;;;-148.88;45.45;74491.69;5040505;28;20025;-86
2022/05/16 09:26:11;;;;;;;8.57;2.40;;;;;;;-148.88;44.54;74471.38;5038957;28;20032;-86
2022/05/16 09:28:47;;;;;;;6.15;2.50;;;;;;;-148.88;46.98;74436.84;5057488;28;20417;-89
2022/05/16 09:31:26;;;;;;;8.60;2.80;;;;;;;-148.88;44.25;74424.66;5041670;28;20390;-88
2022/05/16 09:33:56;;;;;;;5.53;2.70;;;;;;;-148.88;45.04;74400.31;5042621;28;20051;-87
2022/05/16 09:36:34;;;;;;;8.48;2.50;;;;;;;-148.88;45.47;74345.47;5044460;28;20028;-87
2022/05/16 09:39:00;;;;;;;5.85;2.40;;;;;;;-148.88;45.94;74317.06;5043831;28;20021;-88
2022/05/16 09:41:42;;;;;;;7.43;2.80;;;;;;;-148.88;44.82;74288.63;5042328;28;20028;-90
2022/05/16 09:44:29;;;;;;;4.63;2.28;;;;;;;-148.88;43.10;74278.47;5059957;28;20493;-88
2022/05/16 09:47:29;;;;;;;6.93;2.63;;;;;;;-148.88;43.67;74274.41;5040965;28;20125;-87
2022/05/16 09:50:20;;;;;;;7.30;2.70;;;;;;;-148.88;45.56;74298.78;5059101;28;20021;-88
2022/05/16 09:53:09;;;;;;;7.78;2.65;;;;;;;-148.88;42.72;74306.91;5042452;28;20111;-89
2022/05/16 09:55:54;;;;;;;7.53;2.60;;;;;;;-148.88;43.43;74298.78;5034072;28;20043;-87
2022/05/16 09:58:24;;;;;;;5.07;2.55;;;;;;;-148.88;43.32;74327.19;5060180;28;20025;-88
2022/05/16 10:01:03;;;;;;;8.52;3.40;;;;;;;-148.88;43.77;74304.88;5044249;28;20474;-88
2022/05/16 10:03:44;;;;;;;9.00;2.88;;;;;;;-148.88;43.08;74262.22;5042664;28;20111;-89
2022/05/16 10:06:30;;;;;;;7.30;2.72;;;;;;;-148.88;41.78;74185.06;5044330;28;20025;-88
2022/05/16 10:09:01;;;;;;;9.98;2.63;;;;;;;-148.88;43.28;74146.50;5042628;28;20025;-88
2022/05/16 10:11:28;;;;;;;10.00;2.70;;;;;;;-148.88;41.80;74136.34;5042182;28;20017;-89
2022/05/16 10:13:55;;;;;;;5.20;2.60;;;;;;;-148.88;41.43;74140.41;5041336;28;20017;-89
2022/05/16 10:16:24;;;;;;;6.78;2.83;;;;;;;-148.88;41.37;74201.31;5040622;28;20036;-89
2022/05/16 10:18:55;;;;;;;6.45;2.95;;;;;;;-148.88;42.54;74201.31;5041595;28;20017;-89
2022/05/16 10:21:35;;;;;;;7.07;2.90;;;;;;;-148.88;41.47;74239.91;5057173;28;20029;-87
2022/05/16 10:24:03;;;;;;;7.53;3.00;;;;;;;-148.88;42.69;74268.31;5051717;28;20033;-89
2022/05/16 10:26:35;;;;;;;8.88;3.05;;;;;;;-148.88;43.89;74272.38;5040798;28;20028;-89
2022/05/16 10:29:06;;;;;;;10.25;3.03;;;;;;;-148.88;43.16;74294.72;5040022;28;20025;-88
2022/05/16 10:34:47;;;;;;;8.57;2.83;;;;;;;-148.88;43.22;74339.38;5058967;28;20032;-88
2022/05/16 10:37:14;;;;;;;8.50;3.03;;;;;;;-148.88;43.39;74337.34;5039603;28;20021;-89
2022/05/16 10:39:43;;;;;;;5.72;2.80;;;;;;;-148.88;44.97;74357.66;5057178;28;20071;-88
2022/05/16 10:42:26;;;;;;;9.38;2.90;;;;;;;-148.88;45.32;74363.75;5039218;28;20021;-89
2022/05/16 10:45:17;;;;;;;11.10;3.25;;;;;;;-148.88;45.65;74351.56;5057666;28;20045;-90
2022/05/16 10:47:57;;;;;;;5.57;2.78;;;;;;;-148.88;44.88;74367.81;5039009;28;20021;-89
2022/05/16 10:50:28;;;;;;;6.45;3.08;;;;;;;-148.88;45.72;74363.75;5058319;28;20021;-91
2022/05/16 10:53:08;;;;;;;6.38;2.72;;;;;;;-148.88;44.72;74369.84;5060472;28;20402;-86
2022/05/16 10:56:13;;;;;;;8.35;2.85;;;;;;;-148.88;45.49;74365.78;5056841;28;20028;-88
2022/05/16 10:59:07;;;;;;;9.57;2.70;;;;;;;-148.88;46.28;74375.94;5038290;28;20025;-88
2022/05/16 11:01:52;;;;;;;7.72;3.03;;;;;;;-148.88;45.86;74386.09;5038453;28;20037;-87
2022/05/16 11:04:23;;;;;;;5.20;2.63;;;;;;;-148.88;45.30;74380.00;5056089;28;20029;-86
2022/05/16 11:07:11;;;;;;;7.18;3.10;;;;;;;-148.88;44.67;74388.13;5038498;28;20029;-87
2022/05/16 11:10:14;;;;;;;6.97;3.13;;;;;;;-148.88;42.84;74402.34;5055583;28;20025;-85
2022/05/16 11:12:52;;;;;;;12.45;3.25;;;;;;;-148.88;41.97;74390.16;5022562;28;20056;-87
2022/05/16 11:15:29;;;;;;;7.70;3.03;;;;;;;-148.88;42.19;74388.13;5039007;28;20025;-87
2022/05/16 11:18:13;;;;;;;7.88;2.75;;;;;;;-148.88;41.87;74375.94;5041000;28;20029;-87
2022/05/16 11:20:43;;;;;;;5.22;2.35;;;;;;;-148.88;44.43;74349.53;5038277;28;20115;-88
2022/05/16 11:23:20;;;;;;;6.13;3.00;;;;;;;-148.88;44.00;74333.28;5056181;28;20025;-88
2022/05/16 11:25:48;;;;;;;7.50;3.05;;;;;;;-148.88;43.21;74339.38;5038145;28;20025;-87
2022/05/16 11:28:39;;;;;;;6.68;2.70;;;;;;;-148.88;44.34;74327.19;5038240;28;20393;-87
2022/05/16 11:31:13;;;;;;;5.80;3.08;;;;;;;-148.88;43.47;74310.97;5056204;28;20059;-87
2022/05/16 11:33:53;;;;;;;7.47;3.25;;;;;;;-148.88;41.33;74304.88;5055975;28;20101;-88
2022/05/16 11:36:32;;;;;;;5.40;2.72;;;;;;;-148.88;42.13;74290.66;5039081;28;20036;-87
2022/05/16 11:39:11;;;;;;;11.98;3.38;;;;;;;-148.88;43.14;74243.97;5041378;28;20436;-87
2022/05/16 11:41:48;;;;;;;7.55;3.10;;;;;;;-148.88;41.26;74209.44;5055365;28;20112;-86
2022/05/16 11:44:27;;;;;;;7.55;3.40;;;;;;;-148.88;41.26;74185.06;5057563;28;20024;-87
2022/05/16 11:47:15;;;;;;;9.60;3.28;;;;;;;-148.88;40.68;74193.19;5055870;28;20025;-87
2022/05/16 11:50:14;;;;;;;8.45;3.05;;;;;;;-148.88;42.02;74178.97;5038332;28;20025;-88
2022/05/16 11:53:11;;;;;;;7.18;2.92;;;;;;;-148.88;40.24;74203.34;5037882;28;20031;-87
2022/05/16 12:01:30;;;;;;;8.50;3.42;;;;;;;-148.88;41.86;74221.63;5057040;28;20051;-87
2022/05/16 12:04:13;;;;;;;9.73;3.20;;;;;;;-148.88;41.90;74211.47;5056466;28;20037;-87